createdAt,value
2018-05-31T00:00:30.589Z,16.40
2018-05-31T00:02:58.070Z,16.40
2018-05-31T00:05:26.353Z,16.20
2018-05-31T00:07:54.594Z,16.30
2018-05-31T00:10:22.871Z,16.20
2018-05-31T00:12:51.889Z,16.20
2018-05-31T00:15:20.141Z,16.30
2018-05-31T00:17:48.423Z,16.40
2018-05-31T00:20:15.912Z,16.40
2018-05-31T00:22:43.425Z,16.20
2018-05-31T00:25:10.938Z,16.20
2018-05-31T00:27:39.171Z,16.10
2018-05-31T00:30:06.649Z,16.10
2018-05-31T00:32:34.926Z,16.20
2018-05-31T00:35:03.171Z,16.20
2018-05-31T00:37:30.657Z,16.20
2018-05-31T00:39:58.897Z,16.00
2018-05-31T00:42:26.413Z,16.00
2018-05-31T00:44:53.890Z,16.00
2018-05-31T00:47:21.386Z,16.00
2018-05-31T00:49:48.856Z,16.00
2018-05-31T00:52:16.382Z,16.00
2018-05-31T00:54:43.849Z,16.10
2018-05-31T00:57:11.313Z,16.00
2018-05-31T00:59:38.805Z,15.90
2018-05-31T01:02:07.065Z,15.80
2018-05-31T01:04:34.564Z,15.80
2018-05-31T01:07:02.034Z,15.80
2018-05-31T01:09:29.538Z,15.80
2018-05-31T01:11:57.826Z,15.60
2018-05-31T01:14:25.285Z,15.60
2018-05-31T01:16:52.773Z,15.60
2018-05-31T01:19:20.265Z,15.60
2018-05-31T01:21:47.771Z,15.50
2018-05-31T01:24:16.027Z,15.50
2018-05-31T01:26:43.656Z,15.50
2018-05-31T01:29:11.137Z,15.50
2018-05-31T01:31:38.634Z,15.30
2018-05-31T01:34:06.882Z,15.30
2018-05-31T01:36:35.897Z,15.20
2018-05-31T01:39:04.138Z,15.30
2018-05-31T01:41:31.645Z,15.30
2018-05-31T01:43:59.155Z,15.20
2018-05-31T01:46:26.665Z,15.20
2018-05-31T01:48:54.922Z,15.10
2018-05-31T01:51:22.426Z,15.10
2018-05-31T01:53:49.921Z,15.10
2018-05-31T01:56:18.346Z,14.90
2018-05-31T01:58:45.852Z,14.90
2018-05-31T02:01:13.369Z,14.80
2018-05-31T02:03:40.840Z,14.70
2018-05-31T02:06:08.325Z,14.80
2018-05-31T02:08:35.812Z,14.80
2018-05-31T02:11:03.317Z,14.60
2018-05-31T02:13:30.812Z,14.60
2018-05-31T02:15:59.784Z,14.40
2018-05-31T02:18:27.289Z,14.40
2018-05-31T02:20:55.522Z,14.40
2018-05-31T02:23:23.025Z,14.40
2018-05-31T02:25:51.286Z,14.40
2018-05-31T02:28:18.793Z,14.40
2018-05-31T02:30:46.261Z,14.40
2018-05-31T02:33:13.761Z,14.30
2018-05-31T02:35:41.245Z,14.30
2018-05-31T02:38:08.765Z,14.30
2018-05-31T02:40:36.243Z,14.30
2018-05-31T02:43:03.734Z,14.20
2018-05-31T02:45:31.256Z,14.10
2018-05-31T02:47:59.526Z,14.00
2018-05-31T02:50:28.529Z,13.90
2018-05-31T02:52:56.037Z,13.90
2018-05-31T02:55:23.536Z,13.90
2018-05-31T02:57:51.005Z,13.90
2018-05-31T03:00:18.512Z,14.00
2018-05-31T03:02:46.002Z,14.00
2018-05-31T03:05:13.494Z,14.00
2018-05-31T03:07:41.769Z,13.90
2018-05-31T03:10:09.267Z,13.90
2018-05-31T03:12:36.758Z,13.80
2018-05-31T03:15:04.262Z,13.70
2018-05-31T03:17:31.734Z,13.60
2018-05-31T03:19:59.235Z,13.60
2018-05-31T03:22:26.705Z,13.60
2018-05-31T03:24:54.968Z,13.50
2018-05-31T03:27:22.458Z,13.50
2018-05-31T03:29:50.697Z,13.60
2018-05-31T03:32:18.225Z,13.60
2018-05-31T03:34:45.706Z,13.50
2018-05-31T03:37:13.229Z,13.50
2018-05-31T03:39:41.500Z,13.50
2018-05-31T03:42:09.007Z,13.50
2018-05-31T03:44:36.504Z,13.50
2018-05-31T03:47:04.777Z,13.40
2018-05-31T03:49:33.019Z,13.40
2018-05-31T03:52:00.537Z,13.40
2018-05-31T03:54:28.041Z,13.30
2018-05-31T03:56:55.514Z,13.30
2018-05-31T03:59:23.793Z,13.40
2018-05-31T04:01:52.058Z,13.40
2018-05-31T04:04:19.573Z,13.40
2018-05-31T04:06:47.710Z,13.50
2018-05-31T04:09:15.981Z,13.50
2018-05-31T04:11:44.357Z,13.50
2018-05-31T04:14:12.628Z,13.70
2018-05-31T04:16:40.113Z,13.60
2018-05-31T04:19:08.378Z,13.70
2018-05-31T04:21:36.625Z,13.70
2018-05-31T04:24:04.143Z,13.70
2018-05-31T04:26:31.636Z,13.70
2018-05-31T04:28:59.166Z,13.70
2018-05-31T04:31:26.639Z,13.70
2018-05-31T04:33:54.137Z,13.80
2018-05-31T04:36:21.617Z,13.80
2018-05-31T04:38:49.881Z,13.90
2018-05-31T04:41:18.154Z,14.00
2018-05-31T04:43:45.657Z,14.00
2018-05-31T04:46:13.174Z,14.10
2018-05-31T04:48:40.669Z,14.20
2018-05-31T04:51:08.156Z,14.20
2018-05-31T04:53:35.691Z,14.30
2018-05-31T04:56:03.917Z,14.30
2018-05-31T04:58:31.398Z,14.30
2018-05-31T05:00:59.650Z,14.40
2018-05-31T05:03:27.114Z,14.40
2018-05-31T05:05:56.121Z,14.40
2018-05-31T05:08:23.605Z,14.40
2018-05-31T05:10:51.089Z,14.50
2018-05-31T05:13:18.578Z,14.50
2018-05-31T05:15:47.574Z,14.70
2018-05-31T05:18:15.108Z,14.70
2018-05-31T05:20:42.603Z,14.80
2018-05-31T05:23:11.618Z,14.90
2018-05-31T05:25:40.109Z,15.10
2018-05-31T05:28:07.619Z,15.10
2018-05-31T05:30:35.109Z,15.10
2018-05-31T05:33:03.532Z,15.20
2018-05-31T05:35:31.066Z,15.20
2018-05-31T05:37:58.924Z,15.40
2018-05-31T05:40:27.185Z,15.40
2018-05-31T05:42:55.531Z,15.50
2018-05-31T05:45:23.017Z,15.50
2018-05-31T05:47:50.558Z,15.60
2018-05-31T05:50:18.043Z,15.70
2018-05-31T05:52:46.214Z,15.80
2018-05-31T05:55:13.785Z,15.90
2018-05-31T05:57:42.035Z,16.20
2018-05-31T06:00:11.033Z,16.30
2018-05-31T06:02:40.013Z,16.50
2018-05-31T06:05:07.511Z,16.40
2018-05-31T06:07:35.822Z,16.80
2018-05-31T06:10:03.609Z,16.80
2018-05-31T06:12:31.064Z,17.00
2018-05-31T06:14:58.627Z,17.20
2018-05-31T06:17:26.094Z,17.40
2018-05-31T06:19:53.648Z,17.50
2018-05-31T06:22:21.241Z,17.60
2018-05-31T06:24:49.508Z,18.00
2018-05-31T06:27:17.468Z,18.00
2018-05-31T06:29:45.108Z,18.30
2018-05-31T06:32:12.666Z,18.50
2018-05-31T06:34:40.170Z,18.70
2018-05-31T06:37:08.448Z,19.10
2018-05-31T06:39:36.696Z,19.10
2018-05-31T06:42:04.193Z,19.40
2018-05-31T06:44:32.663Z,19.60
2018-05-31T06:47:00.158Z,19.60
2018-05-31T06:49:27.657Z,19.90
2018-05-31T06:51:55.168Z,19.90
2018-05-31T06:54:22.712Z,20.10
2018-05-31T06:56:50.161Z,20.20
2018-05-31T06:59:18.423Z,20.90
2018-05-31T07:01:45.942Z,20.80
2018-05-31T07:04:13.456Z,21.10
2018-05-31T07:06:40.917Z,21.20
2018-05-31T07:09:09.187Z,21.50
2018-05-31T07:11:36.641Z,21.50
2018-05-31T07:14:04.139Z,21.60
2018-05-31T07:16:31.625Z,21.70
2018-05-31T07:18:59.153Z,22.10
2018-05-31T07:21:26.621Z,22.30
2018-05-31T07:23:54.137Z,22.50
2018-05-31T07:26:21.601Z,22.80
2018-05-31T07:28:49.882Z,23.20
2018-05-31T07:31:18.133Z,23.40
2018-05-31T07:33:45.639Z,23.40
2018-05-31T07:36:13.165Z,23.50
2018-05-31T07:38:40.632Z,23.40
2018-05-31T07:41:08.082Z,23.70
2018-05-31T07:43:35.570Z,23.80
2018-05-31T07:46:03.078Z,23.70
2018-05-31T07:48:30.536Z,24.00
2018-05-31T07:50:58.037Z,24.20
2018-05-31T07:53:26.297Z,24.30
2018-05-31T07:55:54.558Z,24.30
2018-05-31T07:58:22.079Z,24.30
2018-05-31T08:00:49.528Z,24.40
2018-05-31T08:03:16.995Z,24.50
2018-05-31T08:05:44.551Z,24.70
2018-05-31T08:08:11.973Z,24.70
2018-05-31T08:10:40.260Z,24.90
2018-05-31T08:13:08.507Z,24.90
2018-05-31T08:15:36.785Z,25.30
2018-05-31T08:18:04.242Z,25.30
2018-05-31T08:20:31.757Z,25.50
2018-05-31T08:22:59.226Z,25.30
2018-05-31T08:25:26.727Z,25.80
2018-05-31T08:27:54.985Z,25.80
2018-05-31T08:30:22.510Z,25.80
2018-05-31T08:32:50.018Z,26.10
2018-05-31T08:35:18.308Z,26.00
2018-05-31T08:37:46.561Z,26.40
2018-05-31T08:40:14.072Z,26.30
2018-05-31T08:42:41.590Z,26.50
2018-05-31T08:45:09.872Z,26.60
2018-05-31T08:47:38.892Z,26.50
2018-05-31T08:50:06.371Z,26.50
2018-05-31T08:52:33.885Z,26.70
2018-05-31T08:55:01.383Z,26.90
2018-05-31T08:57:28.868Z,27.10
2018-05-31T08:59:56.366Z,26.60
2018-05-31T09:02:24.630Z,26.70
2018-05-31T09:04:52.897Z,27.00
2018-05-31T09:07:20.410Z,27.00
2018-05-31T09:09:47.893Z,27.00
2018-05-31T09:12:15.385Z,26.90
2018-05-31T09:14:44.420Z,27.00
2018-05-31T09:17:11.905Z,27.00
2018-05-31T09:19:39.420Z,27.50
2018-05-31T09:22:07.649Z,27.70
2018-05-31T09:24:35.114Z,27.60
2018-05-31T09:27:02.599Z,27.80
2018-05-31T09:29:30.882Z,28.10
2018-05-31T09:31:59.179Z,28.00
2018-05-31T09:34:26.678Z,28.00
2018-05-31T09:36:54.199Z,27.60
2018-05-31T09:39:21.666Z,27.20
2018-05-31T09:41:49.157Z,27.80
2018-05-31T09:44:16.638Z,28.10
2018-05-31T09:46:44.168Z,28.30
2018-05-31T09:49:11.642Z,28.50
2018-05-31T09:51:39.165Z,28.10
2018-05-31T09:54:06.659Z,28.50
2018-05-31T09:56:34.917Z,28.90
2018-05-31T09:59:02.414Z,28.90
2018-05-31T10:01:29.930Z,28.80
2018-05-31T10:03:57.448Z,29.50
2018-05-31T10:06:25.717Z,29.50
2018-05-31T10:08:53.988Z,29.70
2018-05-31T10:11:22.233Z,29.80
2018-05-31T10:13:49.734Z,29.80
2018-05-31T10:16:17.953Z,29.90
2018-05-31T10:18:45.454Z,29.90
2018-05-31T10:21:12.945Z,29.80
2018-05-31T10:23:40.437Z,30.20
2018-05-31T10:26:07.918Z,29.70
2018-05-31T10:28:35.413Z,29.80
2018-05-31T10:31:02.888Z,30.20
2018-05-31T10:33:30.396Z,30.10
2018-05-31T10:35:57.857Z,30.40
2018-05-31T10:38:25.363Z,30.30
2018-05-31T10:40:52.924Z,30.90
2018-05-31T10:43:21.154Z,30.20
2018-05-31T10:45:48.627Z,30.20
2018-05-31T10:48:16.896Z,30.00
2018-05-31T10:50:45.864Z,29.60
2018-05-31T10:53:13.373Z,29.60
2018-05-31T10:55:40.875Z,30.10
2018-05-31T10:58:08.342Z,30.50
2018-05-31T11:00:35.848Z,30.50
2018-05-31T11:03:03.350Z,30.90
2018-05-31T11:05:30.878Z,30.90
2018-05-31T11:07:58.340Z,30.70
2018-05-31T11:10:25.827Z,30.30
2018-05-31T11:12:53.357Z,30.50
2018-05-31T11:15:20.899Z,30.80
2018-05-31T11:17:49.149Z,30.50
2018-05-31T11:20:16.622Z,30.50
2018-05-31T11:22:44.892Z,30.60
2018-05-31T11:25:13.128Z,30.10
2018-05-31T11:27:40.630Z,30.10
2018-05-31T11:30:08.886Z,30.10
2018-05-31T11:32:36.396Z,30.10
2018-05-31T11:35:03.876Z,29.60
2018-05-31T11:37:31.369Z,29.50
2018-05-31T11:39:58.839Z,29.70
2018-05-31T11:42:27.118Z,28.70
2018-05-31T11:44:55.349Z,28.70
2018-05-31T11:47:22.856Z,28.70
2018-05-31T11:49:51.077Z,28.60
2018-05-31T11:52:18.605Z,28.60
2018-05-31T11:54:46.090Z,28.20
2018-05-31T11:57:13.607Z,28.80
2018-05-31T11:59:41.856Z,28.40
2018-05-31T12:02:09.331Z,28.40
2018-05-31T12:04:36.838Z,28.40
2018-05-31T12:07:04.302Z,28.60
2018-05-31T12:09:31.806Z,28.70
2018-05-31T12:11:59.286Z,28.80
2018-05-31T12:14:27.546Z,28.30
2018-05-31T12:16:55.781Z,28.40
2018-05-31T12:19:23.317Z,28.40
2018-05-31T12:21:50.785Z,28.30
2018-05-31T12:24:18.281Z,28.20
2018-05-31T12:26:45.805Z,28.10
2018-05-31T12:29:13.548Z,28.30
2018-05-31T12:31:41.029Z,28.10
2018-05-31T12:34:08.523Z,27.90
2018-05-31T12:36:36.811Z,27.50
2018-05-31T12:39:04.302Z,27.50
2018-05-31T12:41:31.829Z,28.00
2018-05-31T12:43:59.334Z,28.80
2018-05-31T12:46:27.279Z,29.20
2018-05-31T12:48:55.549Z,29.50
2018-05-31T12:51:23.845Z,30.00
2018-05-31T12:53:51.323Z,30.00
2018-05-31T12:56:19.062Z,30.20
2018-05-31T12:58:46.826Z,30.50
2018-05-31T13:01:15.142Z,29.50
2018-05-31T13:03:42.690Z,29.50
2018-05-31T13:06:10.666Z,29.60
2018-05-31T13:08:38.187Z,30.10
2018-05-31T13:11:06.438Z,30.30
2018-05-31T13:13:34.001Z,30.30
2018-05-31T13:16:01.463Z,30.50
2018-05-31T13:18:29.312Z,30.50
2018-05-31T13:20:56.815Z,30.90
2018-05-31T13:23:25.113Z,31.50
2018-05-31T13:25:52.646Z,31.40
2018-05-31T13:28:20.913Z,31.00
2018-05-31T13:30:49.301Z,31.20
2018-05-31T13:33:17.588Z,31.40
2018-05-31T13:35:45.067Z,31.40
2018-05-31T13:38:12.581Z,31.80
2018-05-31T13:40:40.833Z,31.60
2018-05-31T13:43:08.379Z,31.50
2018-05-31T13:45:35.870Z,31.20
2018-05-31T13:48:03.343Z,30.60
2018-05-31T13:50:31.654Z,30.50
2018-05-31T13:52:59.117Z,30.50
2018-05-31T13:55:26.854Z,30.10
2018-05-31T13:57:55.205Z,29.50
2018-05-31T14:00:22.811Z,29.50
2018-05-31T14:02:50.366Z,29.30
2018-05-31T14:05:17.877Z,29.10
2018-05-31T14:07:45.367Z,29.20
2018-05-31T14:10:12.869Z,29.70
2018-05-31T14:12:40.362Z,30.00
2018-05-31T14:15:07.837Z,29.80
2018-05-31T14:17:35.337Z,29.10
2018-05-31T14:20:02.842Z,29.00
2018-05-31T14:22:30.353Z,28.80
2018-05-31T14:24:57.849Z,28.60
2018-05-31T14:27:25.354Z,28.30
2018-05-31T14:29:52.828Z,28.20
2018-05-31T14:32:20.332Z,28.00
2018-05-31T14:34:47.798Z,27.90
2018-05-31T14:37:16.057Z,27.50
2018-05-31T14:39:43.562Z,27.50
2018-05-31T14:42:11.055Z,27.30
2018-05-31T14:44:38.521Z,27.20
2018-05-31T14:47:06.018Z,27.40
2018-05-31T14:49:34.250Z,27.30
2018-05-31T14:52:01.765Z,27.30
2018-05-31T14:54:29.290Z,27.30
2018-05-31T14:56:56.786Z,27.30
2018-05-31T14:59:24.274Z,27.30
2018-05-31T15:01:51.776Z,27.10
2018-05-31T15:04:20.039Z,27.20
2018-05-31T15:06:47.544Z,27.20
2018-05-31T15:09:15.058Z,27.30
2018-05-31T15:11:42.563Z,27.40
2018-05-31T15:14:10.061Z,27.30
2018-05-31T15:16:37.557Z,27.30
2018-05-31T15:19:05.806Z,27.30
2018-05-31T15:21:34.826Z,27.30
2018-05-31T15:24:03.092Z,27.00
2018-05-31T15:26:30.600Z,27.10
2018-05-31T15:28:58.101Z,26.90
2018-05-31T15:31:26.448Z,26.80
2018-05-31T15:33:53.927Z,26.80
2018-05-31T15:36:21.433Z,26.70
2018-05-31T15:38:48.956Z,26.50
2018-05-31T15:41:17.976Z,26.60
2018-05-31T15:43:46.233Z,26.60
2018-05-31T15:46:13.750Z,26.60
2018-05-31T15:48:41.245Z,26.50
2018-05-31T15:51:08.719Z,26.40
2018-05-31T15:53:36.997Z,26.20
2018-05-31T15:56:05.246Z,26.10
2018-05-31T15:58:32.734Z,26.10
2018-05-31T16:01:00.989Z,25.50
2018-05-31T16:03:29.246Z,25.00
2018-05-31T16:05:56.765Z,24.90
2018-05-31T16:08:24.261Z,24.60
2018-05-31T16:10:51.748Z,24.30
2018-05-31T16:13:19.252Z,23.90
2018-05-31T16:15:46.729Z,23.80
2018-05-31T16:18:14.226Z,23.60
2018-05-31T16:20:41.733Z,23.60
2018-05-31T16:23:09.241Z,23.40
2018-05-31T16:25:39.657Z,23.20
2018-05-31T16:28:07.168Z,23.10
2018-05-31T16:30:34.689Z,23.30
2018-05-31T16:33:02.197Z,23.30
2018-05-31T16:35:29.675Z,23.20
2018-05-31T16:37:57.157Z,23.20
2018-05-31T16:40:24.663Z,23.30
2018-05-31T16:42:52.137Z,23.20
2018-05-31T16:45:20.233Z,22.90
2018-05-31T16:47:47.774Z,22.60
2018-05-31T16:50:15.335Z,22.40
2018-05-31T16:52:43.526Z,22.10
2018-05-31T16:55:11.047Z,22.10
2018-05-31T16:57:38.697Z,21.80
2018-05-31T17:00:06.437Z,21.70
2018-05-31T17:02:33.910Z,21.70
2018-05-31T17:05:02.473Z,21.80
2018-05-31T17:07:29.957Z,21.80
2018-05-31T17:09:58.231Z,21.80
2018-05-31T17:12:26.537Z,21.60
2018-05-31T17:14:55.430Z,21.50
2018-05-31T17:17:22.925Z,21.50
2018-05-31T17:19:50.531Z,21.30
2018-05-31T17:22:18.840Z,21.30
2018-05-31T17:24:46.333Z,21.30
2018-05-31T17:27:15.555Z,21.30
2018-05-31T17:29:43.797Z,21.30
2018-05-31T17:32:11.322Z,21.30
2018-05-31T17:34:38.970Z,21.40
2018-05-31T17:37:07.026Z,21.40
2018-05-31T17:39:35.284Z,21.30
2018-05-31T17:42:02.809Z,21.30
2018-05-31T17:44:30.312Z,21.40
2018-05-31T17:46:58.933Z,21.40
2018-05-31T17:49:27.138Z,21.30
2018-05-31T17:51:54.642Z,21.50
2018-05-31T17:54:22.973Z,21.40
2018-05-31T17:56:50.736Z,21.40
2018-05-31T17:59:18.537Z,21.30
2018-05-31T18:01:46.053Z,21.10
2018-05-31T18:04:13.545Z,21.10
2018-05-31T18:06:41.062Z,21.00
2018-05-31T18:09:08.570Z,21.00
2018-05-31T18:11:36.999Z,20.90
2018-05-31T18:14:05.001Z,20.80
2018-05-31T18:16:32.517Z,20.80
2018-05-31T18:19:01.384Z,20.70
2018-05-31T18:21:29.642Z,20.80
2018-05-31T18:23:57.337Z,20.80
2018-05-31T18:26:25.026Z,20.80
2018-05-31T18:28:52.513Z,20.70
2018-05-31T18:31:20.018Z,20.70
2018-05-31T18:33:47.586Z,20.60
2018-05-31T18:36:15.061Z,20.50
2018-05-31T18:38:42.598Z,20.50
2018-05-31T18:41:10.087Z,20.50
2018-05-31T18:43:37.850Z,20.50
2018-05-31T18:46:05.429Z,20.50
2018-05-31T18:48:32.929Z,20.50
2018-05-31T18:51:01.508Z,20.50
2018-05-31T18:53:29.741Z,20.40
2018-05-31T18:55:57.505Z,20.40
2018-05-31T18:58:24.999Z,20.40
2018-05-31T19:00:53.289Z,20.30
2018-05-31T19:03:24.430Z,20.30
2018-05-31T19:05:52.714Z,20.20
2018-05-31T19:08:21.601Z,20.20
2018-05-31T19:10:51.033Z,20.10
2018-05-31T19:13:24.316Z,20.10
2018-05-31T19:15:52.036Z,20.10
2018-05-31T19:21:30.528Z,20.10
2018-05-31T19:24:12.897Z,20.00
2018-05-31T19:26:41.157Z,19.80
2018-05-31T19:29:08.766Z,19.80
2018-05-31T19:31:36.269Z,19.80
2018-05-31T19:34:04.046Z,19.80
2018-05-31T19:36:37.344Z,19.80
2018-05-31T19:39:05.736Z,19.70
2018-05-31T19:41:33.985Z,19.80
2018-05-31T19:44:07.282Z,19.80
2018-05-31T19:46:34.742Z,19.70
2018-05-31T19:49:02.413Z,19.60
2018-05-31T19:51:35.579Z,19.60
2018-05-31T19:54:03.093Z,19.70
2018-05-31T19:56:31.484Z,19.50
2018-05-31T19:59:04.978Z,19.50
2018-05-31T20:01:38.841Z,19.50
2018-05-31T20:04:06.410Z,19.40
2018-05-31T20:06:34.150Z,19.50
2018-05-31T20:09:02.107Z,19.50
2018-05-31T20:11:29.602Z,19.50
2018-05-31T20:13:57.333Z,19.50
2018-05-31T20:16:24.838Z,19.50
2018-05-31T20:18:53.150Z,19.40
2018-05-31T20:21:20.607Z,19.40
2018-05-31T20:23:48.094Z,19.50
2018-05-31T20:26:15.613Z,19.40
2018-05-31T20:28:43.091Z,19.40
2018-05-31T20:31:10.612Z,19.40
2018-05-31T20:33:38.871Z,19.40
2018-05-31T20:36:06.372Z,19.40
2018-05-31T20:38:33.854Z,19.30
2018-05-31T20:41:01.345Z,19.20
2018-05-31T20:43:28.813Z,19.20
2018-05-31T20:45:56.293Z,19.00
2018-05-31T20:48:24.574Z,18.60
2018-05-31T20:50:52.848Z,18.30
2018-05-31T20:53:21.084Z,18.00
2018-05-31T20:55:48.577Z,18.00
2018-05-31T20:58:16.845Z,17.30
2018-05-31T21:00:45.137Z,17.10
2018-05-31T21:03:13.445Z,17.10
2018-05-31T21:05:40.948Z,17.10
2018-05-31T21:08:08.457Z,17.10
2018-05-31T21:10:35.929Z,17.10
2018-05-31T21:13:03.435Z,17.00
2018-05-31T21:15:31.689Z,17.10
2018-05-31T21:17:59.205Z,17.10
2018-05-31T21:20:26.804Z,17.10
2018-05-31T21:22:54.373Z,17.20
2018-05-31T21:25:22.569Z,17.20
2018-05-31T21:27:50.818Z,17.10
2018-05-31T21:30:18.313Z,17.10
2018-05-31T21:32:46.568Z,17.10
2018-05-31T21:35:14.073Z,17.10
2018-05-31T21:37:41.561Z,17.10
2018-05-31T21:40:09.063Z,17.10
2018-05-31T21:42:37.304Z,17.10
2018-05-31T21:45:04.817Z,17.10
2018-05-31T21:47:32.297Z,17.10
2018-05-31T21:49:59.807Z,17.10
2018-05-31T21:52:27.314Z,17.00
2018-05-31T21:54:54.825Z,17.00
2018-05-31T21:57:23.054Z,17.00
2018-05-31T21:59:50.554Z,17.00
2018-05-31T22:02:18.054Z,16.90
2018-05-31T22:04:45.533Z,16.90
2018-05-31T22:07:13.028Z,16.80
2018-05-31T22:09:40.510Z,16.90
2018-05-31T22:12:08.778Z,16.90
2018-05-31T22:14:37.015Z,16.80
2018-05-31T22:17:04.554Z,16.80
2018-05-31T22:19:32.021Z,16.80
2018-05-31T22:21:59.527Z,16.70
2018-05-31T22:24:27.771Z,16.80
2018-05-31T22:26:55.269Z,16.70
2018-05-31T22:29:23.517Z,16.70
2018-05-31T22:31:51.027Z,16.70
2018-05-31T22:34:18.496Z,16.70
2018-05-31T22:36:46.008Z,16.70
2018-05-31T22:39:13.469Z,16.80
2018-05-31T22:41:41.747Z,16.60
2018-05-31T22:44:10.006Z,16.60
2018-05-31T22:46:37.514Z,16.50
2018-05-31T22:49:05.033Z,16.60
2018-05-31T22:51:32.514Z,16.60
2018-05-31T22:54:00.785Z,16.50
2018-05-31T22:56:29.044Z,16.50
2018-05-31T22:58:56.654Z,16.50
2018-05-31T23:01:24.113Z,16.50
2018-05-31T23:03:51.619Z,16.40
2018-05-31T23:06:19.854Z,16.40
2018-05-31T23:08:47.353Z,16.40
2018-05-31T23:11:16.361Z,16.50
2018-05-31T23:13:44.648Z,16.60
2018-05-31T23:16:12.880Z,16.60
2018-05-31T23:18:40.351Z,16.60
2018-05-31T23:21:09.363Z,16.60
2018-05-31T23:23:36.845Z,16.60
2018-05-31T23:26:05.089Z,16.60
2018-05-31T23:28:32.565Z,16.50
2018-05-31T23:31:00.820Z,16.60
2018-05-31T23:33:28.876Z,16.60
2018-05-31T23:35:56.349Z,16.60
2018-05-31T23:38:25.329Z,16.60
2018-05-31T23:40:52.829Z,16.60
2018-05-31T23:43:21.068Z,16.50
2018-05-31T23:45:48.597Z,16.50
2018-05-31T23:48:16.104Z,16.40
2018-05-31T23:50:43.604Z,16.30
2018-05-31T23:53:11.098Z,16.20
2018-05-31T23:55:38.629Z,16.10
2018-05-31T23:58:06.174Z,16.10
